CPX302 Details

Departure: Daniel K Inouye International Airport (PHNL)
Arrival: Guam International Airport (PGUM)
Route: KEOLA2 NONNI BRIUN 2000N/17000W 1800N/18000E 1600N/17000E 1500N/16000E 1500N/15000E DEWSS


Current Weather Information
PHNL 200953Z 00000KT 10SM FEW038 22/16 A3008 RMK AO2 SLP184 T02220161 402780206
PGUM 200954Z 05005KT 10SM CLR 26/22 A2987 RMK AO2 SLP109 T02560217